createdAt,value
2023-04-02T00:00:38.760Z,1645.00
2023-04-02T00:01:38.826Z,1640.00
2023-04-02T00:02:38.895Z,1633.00
2023-04-02T00:03:38.788Z,1625.00
2023-04-02T00:04:38.733Z,1637.00
2023-04-02T00:05:38.749Z,1645.00
2023-04-02T00:06:38.741Z,1631.00
2023-04-02T00:07:38.749Z,1625.00
2023-04-02T00:08:38.766Z,1621.00
2023-04-02T00:09:38.752Z,1622.00
2023-04-02T00:10:38.719Z,1626.00
2023-04-02T00:11:38.719Z,1621.00
2023-04-02T00:12:38.713Z,1644.00
2023-04-02T00:13:38.718Z,1629.00
2023-04-02T00:14:38.718Z,1630.00
2023-04-02T00:15:38.714Z,1634.00
2023-04-02T00:16:38.740Z,1641.00
2023-04-02T00:17:38.710Z,1621.00
2023-04-02T00:18:38.697Z,1613.00
2023-04-02T00:19:38.698Z,1629.00
2023-04-02T00:20:38.712Z,1637.00
2023-04-02T00:21:39.928Z,1610.00
2023-04-02T00:22:38.705Z,1615.00
2023-04-02T00:23:38.729Z,1620.00
2023-04-02T00:24:38.703Z,1611.00
2023-04-02T00:25:38.701Z,1627.00
2023-04-02T00:26:38.700Z,1627.00
2023-04-02T00:27:38.713Z,1625.00
2023-04-02T00:28:38.715Z,1628.00
2023-04-02T00:29:38.689Z,1625.00
2023-04-02T00:30:38.696Z,1627.00
2023-04-02T00:31:38.707Z,1611.00
2023-04-02T00:32:38.706Z,1602.00
2023-04-02T00:33:38.681Z,1622.00
2023-04-02T00:34:38.687Z,1616.00
2023-04-02T00:35:38.741Z,1602.00
2023-04-02T00:36:38.691Z,1607.00
2023-04-02T00:37:38.838Z,1616.00
2023-04-02T00:38:38.724Z,1606.00
2023-04-02T00:39:38.672Z,1627.00
2023-04-02T00:40:38.666Z,1597.00
2023-04-02T00:41:38.740Z,1594.00
2023-04-02T00:42:38.664Z,1588.00
2023-04-02T00:43:38.673Z,1617.00
2023-04-02T00:44:38.681Z,1608.00
2023-04-02T00:45:38.696Z,1597.00
2023-04-02T00:46:38.671Z,1589.00
2023-04-02T00:47:38.687Z,1582.00
2023-04-02T00:48:38.670Z,1592.00
2023-04-02T00:49:38.677Z,1591.00
2023-04-02T00:50:38.653Z,1579.00
2023-04-02T00:51:38.656Z,1576.00
2023-04-02T00:52:38.667Z,1587.00
2023-04-02T00:53:38.661Z,1584.00
2023-04-02T00:54:38.658Z,1581.00
2023-04-02T00:55:38.662Z,1587.00
2023-04-02T00:56:38.660Z,1589.00
2023-04-02T00:57:38.654Z,1581.00
2023-04-02T00:58:38.659Z,1581.00
2023-04-02T00:59:38.659Z,1576.00
2023-04-02T01:00:38.662Z,1579.00
2023-04-02T01:01:38.666Z,1575.00
2023-04-02T01:02:38.802Z,1578.00
2023-04-02T01:03:38.789Z,1579.00
2023-04-02T01:04:38.632Z,1585.00
2023-04-02T01:05:38.640Z,1574.00
2023-04-02T01:06:38.648Z,1586.00
2023-04-02T01:07:38.663Z,1574.00
2023-04-02T01:08:38.658Z,1574.00
2023-04-02T01:09:38.649Z,1576.00
2023-04-02T01:10:38.639Z,1578.00
2023-04-02T01:11:38.636Z,1582.00
2023-04-02T01:12:38.644Z,1577.00
2023-04-02T01:13:38.640Z,1577.00
2023-04-02T01:14:38.648Z,1582.00
2023-04-02T01:15:38.887Z,1568.00
2023-04-02T01:16:38.637Z,1588.00
2023-04-02T01:17:38.627Z,1575.00
2023-04-02T01:18:38.646Z,1569.00
2023-04-02T01:19:38.634Z,1576.00
2023-04-02T01:20:38.624Z,1566.00
2023-04-02T01:21:38.621Z,1569.00
2023-04-02T01:22:38.628Z,1577.00
2023-04-02T01:23:38.607Z,1566.00
2023-04-02T01:24:38.623Z,1566.00
2023-04-02T01:25:38.607Z,1561.00
2023-04-02T01:26:38.601Z,1557.00
2023-04-02T01:27:38.606Z,1569.00
2023-04-02T01:28:38.600Z,1564.00
2023-04-02T01:29:38.614Z,1572.00
2023-04-02T01:30:38.608Z,1555.00
2023-04-02T01:31:38.629Z,1571.00
2023-04-02T01:32:38.639Z,1570.00
2023-04-02T01:33:38.607Z,1545.00
2023-04-02T01:34:38.620Z,1552.00
2023-04-02T01:35:38.667Z,1544.00
2023-04-02T01:36:38.601Z,1543.00
2023-04-02T01:37:38.591Z,1543.00
2023-04-02T01:38:38.613Z,1535.00
2023-04-02T01:39:38.613Z,1539.00
2023-04-02T01:40:38.616Z,1558.00
2023-04-02T01:41:38.616Z,1548.00
2023-04-02T01:42:38.607Z,1539.00
2023-04-02T01:43:38.601Z,1549.00
2023-04-02T01:44:38.621Z,1554.00
2023-04-02T01:45:38.617Z,1542.00
2023-04-02T01:46:38.607Z,1534.00
2023-04-02T01:47:38.680Z,1538.00
2023-04-02T01:48:38.603Z,1541.00
2023-04-02T01:49:38.622Z,1539.00
2023-04-02T01:50:38.655Z,1532.00
2023-04-02T01:51:38.631Z,1521.00
2023-04-02T01:52:38.645Z,1532.00
2023-04-02T01:53:38.670Z,1534.00
2023-04-02T01:54:38.697Z,1512.00
2023-04-02T01:55:38.678Z,1529.00
2023-04-02T01:56:38.680Z,1539.00
2023-04-02T01:57:38.691Z,1535.00
2023-04-02T01:58:38.723Z,1511.00
2023-04-02T01:59:38.724Z,1518.00
2023-04-02T02:00:38.769Z,1523.00
2023-04-02T02:01:38.739Z,1530.00
2023-04-02T02:02:38.895Z,1524.00
2023-04-02T02:03:38.753Z,1530.00
2023-04-02T02:04:38.792Z,1509.00
2023-04-02T02:05:38.777Z,1526.00
2023-04-02T02:06:38.787Z,1520.00
2023-04-02T02:07:38.797Z,1518.00
2023-04-02T02:08:38.802Z,1516.00
2023-04-02T02:09:38.807Z,1511.00
2023-04-02T02:10:38.841Z,1526.00
2023-04-02T02:11:38.837Z,1508.00
2023-04-02T02:12:38.853Z,1518.00
2023-04-02T02:13:40.974Z,1522.00
2023-04-02T02:14:38.883Z,1505.00
2023-04-02T02:15:38.887Z,1506.00
2023-04-02T02:16:38.885Z,1510.00
2023-04-02T02:17:38.911Z,1494.00
2023-04-02T02:18:38.896Z,1500.00
2023-04-02T02:19:38.938Z,1513.00
2023-04-02T02:20:38.902Z,1519.00
2023-04-02T02:21:38.902Z,1514.00
2023-04-02T02:22:38.985Z,1506.00
2023-04-02T02:23:38.934Z,1511.00
2023-04-02T02:24:38.975Z,1509.00
2023-04-02T02:25:38.950Z,1504.00
2023-04-02T02:26:38.939Z,1498.00
2023-04-02T02:27:38.939Z,1492.00
2023-04-02T02:28:38.943Z,1503.00
2023-04-02T02:29:38.948Z,1511.00
2023-04-02T02:30:38.950Z,1501.00
2023-04-02T02:31:38.994Z,1491.00
2023-04-02T02:32:39.000Z,1506.00
2023-04-02T02:33:38.987Z,1481.00
2023-04-02T02:34:38.978Z,1489.00
2023-04-02T02:35:39.298Z,1476.00
2023-04-02T02:36:38.986Z,1505.00
2023-04-02T02:37:38.996Z,1479.00
2023-04-02T02:38:38.987Z,1473.00
2023-04-02T02:39:38.987Z,1475.00
2023-04-02T02:40:39.003Z,1477.00
2023-04-02T02:41:38.973Z,1482.00
2023-04-02T02:42:38.997Z,1480.00
2023-04-02T02:43:38.986Z,1484.00
2023-04-02T02:44:38.987Z,1482.00
2023-04-02T02:45:39.111Z,1471.00
2023-04-02T02:46:39.006Z,1494.00
2023-04-02T02:47:39.049Z,1469.00
2023-04-02T02:48:39.012Z,1477.00
2023-04-02T02:49:38.984Z,1459.00
2023-04-02T02:50:39.015Z,1466.00
2023-04-02T02:51:38.986Z,1485.00
2023-04-02T02:52:38.985Z,1472.00
2023-04-02T02:53:38.981Z,1469.00
2023-04-02T02:54:38.984Z,1481.00
2023-04-02T02:55:38.992Z,1463.00
2023-04-02T02:56:38.982Z,1453.00
2023-04-02T02:57:38.993Z,1448.00
2023-04-02T02:58:38.988Z,1431.00
2023-04-02T02:59:38.999Z,1426.00
2023-04-02T03:00:38.994Z,1427.00
2023-04-02T03:01:39.063Z,1421.00
2023-04-02T03:02:39.126Z,1397.00
2023-04-02T03:03:39.100Z,1348.00
2023-04-02T03:04:38.997Z,1310.00
2023-04-02T03:05:39.005Z,1285.00
2023-04-02T03:06:39.002Z,1254.00
2023-04-02T03:07:39.002Z,1222.00
2023-04-02T03:08:39.007Z,1195.00
2023-04-02T03:09:39.008Z,1178.00
2023-04-02T03:10:39.012Z,1144.00
2023-04-02T03:11:39.006Z,1107.00
2023-04-02T03:12:39.009Z,1087.00
2023-04-02T03:13:39.011Z,1056.00
2023-04-02T03:14:39.013Z,1038.00
2023-04-02T03:15:39.210Z,1005.00
2023-04-02T03:16:39.021Z,985.00
2023-04-02T03:17:39.078Z,970.00
2023-04-02T03:18:39.052Z,939.00
2023-04-02T03:19:39.039Z,912.00
2023-04-02T03:20:39.040Z,887.00
2023-04-02T03:21:39.063Z,859.00
2023-04-02T03:22:39.068Z,841.00
2023-04-02T03:23:39.108Z,815.00
2023-04-02T03:24:39.177Z,787.00
2023-04-02T03:25:39.236Z,778.00
2023-04-02T03:26:39.282Z,756.00
2023-04-02T03:27:39.341Z,730.00
2023-04-02T03:28:39.408Z,698.00
2023-04-02T03:29:39.463Z,680.00
2023-04-02T03:30:39.534Z,658.00
2023-04-02T03:31:39.613Z,653.00
2023-04-02T03:32:39.675Z,645.00
2023-04-02T03:33:39.735Z,635.00
2023-04-02T03:34:39.804Z,626.00
2023-04-02T03:35:39.890Z,623.00
2023-04-02T03:36:39.944Z,609.00
2023-04-02T03:37:40.002Z,610.00
2023-04-02T03:38:40.055Z,603.00
2023-04-02T03:39:40.120Z,598.00
2023-04-02T03:40:40.190Z,593.00
2023-04-02T03:41:40.255Z,580.00
2023-04-02T03:42:40.323Z,584.00
2023-04-02T03:43:40.405Z,574.00
2023-04-02T03:44:40.466Z,573.00
2023-04-02T03:45:40.536Z,565.00
2023-04-02T03:46:40.680Z,567.00
2023-04-02T03:47:40.679Z,563.00
2023-04-02T03:48:40.753Z,560.00
2023-04-02T03:49:40.813Z,552.00
2023-04-02T03:50:40.883Z,546.00
2023-04-02T03:51:40.970Z,549.00
2023-04-02T03:52:41.023Z,547.00
2023-04-02T03:53:41.095Z,539.00
2023-04-02T03:54:41.185Z,529.00
2023-04-02T03:55:42.158Z,529.00
2023-04-02T03:56:41.185Z,523.00
2023-04-02T03:57:41.185Z,521.00
2023-04-02T03:58:41.185Z,517.00
2023-04-02T03:59:41.169Z,516.00
2023-04-02T04:00:41.182Z,509.00
2023-04-02T04:01:41.209Z,501.00
2023-04-02T04:02:41.251Z,500.00
2023-04-02T04:03:41.236Z,504.00
2023-04-02T04:04:41.222Z,502.00
2023-04-02T04:05:41.254Z,501.00
2023-04-02T04:06:41.335Z,505.00
2023-04-02T04:07:41.426Z,507.00
2023-04-02T04:08:41.487Z,502.00
2023-04-02T04:09:41.573Z,508.00
2023-04-02T04:10:41.595Z,508.00
2023-04-02T04:11:41.591Z,507.00
2023-04-02T04:12:41.593Z,505.00
2023-04-02T04:13:41.594Z,506.00
2023-04-02T04:14:42.333Z,510.00
2023-04-02T04:15:41.614Z,511.00
2023-04-02T04:16:41.663Z,504.00
2023-04-02T04:17:41.715Z,508.00
2023-04-02T04:18:41.702Z,504.00
2023-04-02T04:19:41.752Z,505.00
2023-04-02T04:20:41.822Z,509.00
2023-04-02T04:21:41.883Z,506.00
2023-04-02T04:22:41.936Z,503.00
2023-04-02T04:23:41.987Z,500.00
2023-04-02T04:24:42.039Z,500.00
2023-04-02T04:25:42.092Z,502.00
2023-04-02T04:26:42.155Z,505.00
2023-04-02T04:27:42.217Z,500.00
2023-04-02T04:28:42.283Z,504.00
2023-04-02T04:29:42.338Z,507.00
2023-04-02T04:30:42.390Z,504.00
2023-04-02T04:31:42.449Z,503.00
2023-04-02T04:32:42.513Z,503.00
2023-04-02T04:33:42.560Z,504.00
2023-04-02T04:34:42.629Z,504.00
2023-04-02T04:35:42.666Z,504.00
2023-04-02T04:36:42.725Z,505.00
2023-04-02T04:37:43.467Z,511.00
2023-04-02T04:38:42.842Z,503.00
2023-04-02T04:39:42.895Z,506.00
2023-04-02T04:40:42.967Z,505.00
2023-04-02T04:41:43.014Z,502.00
2023-04-02T04:42:43.103Z,500.00
2023-04-02T04:43:43.146Z,502.00
2023-04-02T04:44:43.218Z,510.00
2023-04-02T04:45:43.270Z,514.00
2023-04-02T04:46:43.313Z,508.00
2023-04-02T04:47:43.375Z,509.00
2023-04-02T04:48:43.394Z,510.00
2023-04-02T04:49:43.415Z,510.00
2023-04-02T04:50:43.409Z,511.00
2023-04-02T04:51:43.430Z,509.00
2023-04-02T04:52:43.453Z,520.00
2023-04-02T04:53:43.476Z,517.00
2023-04-02T04:54:43.482Z,522.00
2023-04-02T04:55:43.498Z,518.00
2023-04-02T04:56:43.514Z,520.00
2023-04-02T04:57:43.522Z,517.00
2023-04-02T04:58:43.542Z,512.00
2023-04-02T04:59:43.576Z,515.00
2023-04-02T05:00:43.626Z,510.00
2023-04-02T05:01:43.678Z,517.00
2023-04-02T05:02:43.778Z,512.00
2023-04-02T05:03:43.785Z,511.00
2023-04-02T05:04:43.859Z,515.00
2023-04-02T05:05:43.867Z,511.00
2023-04-02T05:06:43.891Z,500.00
2023-04-02T05:07:43.905Z,502.00
2023-04-02T05:08:43.926Z,504.00
2023-04-02T05:09:43.992Z,506.00
2023-04-02T05:10:43.985Z,511.00
2023-04-02T05:11:44.028Z,507.00
2023-04-02T05:12:44.045Z,516.00
2023-04-02T05:13:44.088Z,511.00
2023-04-02T05:14:44.122Z,517.00
2023-04-02T05:15:44.125Z,517.00
2023-04-02T05:16:44.135Z,517.00
2023-04-02T05:17:44.172Z,519.00
2023-04-02T05:18:44.156Z,521.00
2023-04-02T05:19:44.176Z,529.00
2023-04-02T05:20:44.181Z,527.00
2023-04-02T05:21:44.210Z,526.00
2023-04-02T05:22:44.195Z,530.00
2023-04-02T05:23:44.205Z,532.00
2023-04-02T05:24:44.226Z,530.00
2023-04-02T05:25:44.240Z,531.00
2023-04-02T05:26:44.251Z,533.00
2023-04-02T05:27:44.257Z,530.00
2023-04-02T05:28:44.275Z,535.00
2023-04-02T05:29:44.279Z,533.00
2023-04-02T05:30:44.282Z,526.00
2023-04-02T05:31:44.375Z,536.00
2023-04-02T05:32:44.403Z,535.00
2023-04-02T05:33:44.323Z,537.00
2023-04-02T05:34:44.337Z,537.00
2023-04-02T05:35:44.379Z,538.00
2023-04-02T05:36:44.355Z,538.00
2023-04-02T05:37:44.381Z,539.00
2023-04-02T05:38:44.388Z,542.00
2023-04-02T05:39:44.393Z,548.00
2023-04-02T05:40:44.415Z,548.00
2023-04-02T05:41:44.410Z,551.00
2023-04-02T05:42:44.424Z,554.00
2023-04-02T05:43:44.427Z,557.00
2023-04-02T05:44:44.440Z,559.00
2023-04-02T05:45:44.452Z,563.00
2023-04-02T05:46:44.523Z,570.00
2023-04-02T05:47:44.501Z,565.00
2023-04-02T05:48:44.484Z,567.00
2023-04-02T05:49:44.502Z,570.00
2023-04-02T05:50:44.520Z,574.00
2023-04-02T05:51:44.510Z,574.00
2023-04-02T05:52:44.530Z,586.00
2023-04-02T05:53:44.530Z,580.00
2023-04-02T05:54:44.542Z,584.00
2023-04-02T05:55:44.564Z,583.00
2023-04-02T05:56:44.555Z,585.00
2023-04-02T05:57:52.836Z,591.00
2023-04-02T05:58:45.868Z,591.00
2023-04-02T05:59:44.571Z,592.00
2023-04-02T06:00:44.572Z,595.00
2023-04-02T06:01:44.593Z,595.00
2023-04-02T06:02:44.603Z,596.00
2023-04-02T06:03:44.703Z,600.00
2023-04-02T06:04:44.604Z,601.00
2023-04-02T06:05:44.611Z,599.00
2023-04-02T06:06:44.609Z,601.00
2023-04-02T06:07:44.633Z,604.00
2023-04-02T06:08:44.623Z,603.00
2023-04-02T06:09:44.641Z,605.00
2023-04-02T06:10:44.647Z,608.00
2023-04-02T06:11:44.655Z,609.00
2023-04-02T06:12:44.667Z,606.00
2023-04-02T06:13:44.667Z,603.00
2023-04-02T06:14:44.663Z,596.00
2023-04-02T06:15:47.152Z,589.00
2023-04-02T06:16:44.783Z,590.00
2023-04-02T06:17:44.730Z,590.00
2023-04-02T06:18:44.691Z,593.00
2023-04-02T06:19:44.700Z,604.00
2023-04-02T06:20:44.706Z,621.00
2023-04-02T06:21:44.718Z,634.00
2023-04-02T06:22:44.717Z,650.00
2023-04-02T06:23:44.730Z,652.00
2023-04-02T06:24:44.735Z,659.00
2023-04-02T06:25:44.747Z,664.00
2023-04-02T06:26:44.749Z,674.00
2023-04-02T06:27:44.765Z,683.00
2023-04-02T06:28:44.751Z,692.00
2023-04-02T06:29:44.776Z,696.00
2023-04-02T06:30:44.835Z,676.00
2023-04-02T06:31:44.818Z,697.00
2023-04-02T06:32:44.848Z,671.00
2023-04-02T06:33:44.833Z,667.00
2023-04-02T06:34:44.831Z,673.00
2023-04-02T06:35:44.854Z,665.00
2023-04-02T06:36:44.859Z,663.00
2023-04-02T06:37:44.887Z,659.00
2023-04-02T06:38:44.873Z,655.00
2023-04-02T06:39:44.881Z,655.00
2023-04-02T06:40:44.926Z,657.00
2023-04-02T06:41:44.908Z,659.00
2023-04-02T06:42:44.920Z,663.00
2023-04-02T06:43:44.919Z,658.00
2023-04-02T06:44:44.921Z,659.00
2023-04-02T06:45:44.948Z,665.00
2023-04-02T06:46:44.955Z,664.00
2023-04-02T06:47:44.983Z,672.00
2023-04-02T06:48:44.966Z,666.00
2023-04-02T06:49:44.970Z,694.00
2023-04-02T06:50:44.976Z,682.00
2023-04-02T06:51:44.996Z,702.00
2023-04-02T06:52:45.009Z,697.00
2023-04-02T06:53:45.018Z,692.00
2023-04-02T06:54:45.045Z,684.00
2023-04-02T06:55:45.059Z,682.00
2023-04-02T06:56:45.046Z,683.00
2023-04-02T06:57:45.044Z,688.00
2023-04-02T06:58:45.046Z,686.00
2023-04-02T06:59:45.050Z,675.00
2023-04-02T07:00:45.053Z,662.00
2023-04-02T07:01:45.123Z,661.00
2023-04-02T07:02:45.097Z,650.00
2023-04-02T07:03:45.079Z,650.00
2023-04-02T07:04:45.112Z,639.00
2023-04-02T07:05:45.070Z,641.00
2023-04-02T07:06:45.068Z,632.00
2023-04-02T07:07:45.075Z,633.00
2023-04-02T07:08:45.072Z,616.00
2023-04-02T07:09:45.081Z,607.00
2023-04-02T07:10:45.099Z,595.00
2023-04-02T07:11:45.070Z,588.00
2023-04-02T07:12:45.081Z,583.00
2023-04-02T07:13:45.110Z,571.00
2023-04-02T07:14:45.128Z,561.00
2023-04-02T07:15:45.168Z,559.00
2023-04-02T07:16:45.208Z,547.00
2023-04-02T07:17:45.252Z,534.00
2023-04-02T07:18:45.260Z,522.00
2023-04-02T07:19:45.303Z,525.00
2023-04-02T07:20:45.343Z,512.00
2023-04-02T07:21:45.384Z,501.00
2023-04-02T07:22:45.396Z,503.00
2023-04-02T07:23:45.429Z,500.00
2023-04-02T07:24:45.438Z,502.00
2023-04-02T07:25:45.489Z,503.00
2023-04-02T07:26:45.532Z,502.00
2023-04-02T07:27:45.592Z,500.00
2023-04-02T07:28:45.603Z,504.00
2023-04-02T07:29:45.634Z,500.00
2023-04-02T07:30:45.665Z,505.00
2023-04-02T07:31:45.780Z,502.00
2023-04-02T07:32:45.752Z,498.00
2023-04-02T07:33:45.738Z,486.00
2023-04-02T07:34:45.742Z,481.00
2023-04-02T07:35:45.754Z,471.00
2023-04-02T07:36:45.751Z,464.00
2023-04-02T07:37:45.776Z,505.00
2023-04-02T07:38:45.787Z,500.00
2023-04-02T07:39:45.795Z,501.00
2023-04-02T07:40:45.790Z,505.00
2023-04-02T07:41:45.795Z,500.00
2023-04-02T07:42:45.796Z,500.00
2023-04-02T07:43:45.808Z,502.00
2023-04-02T07:44:45.826Z,500.00
2023-04-02T07:45:45.909Z,500.00
2023-04-02T07:46:46.016Z,503.00
2023-04-02T07:47:46.025Z,501.00
2023-04-02T07:48:46.082Z,500.00
2023-04-02T07:49:46.178Z,500.00
2023-04-02T07:50:46.217Z,504.00
2023-04-02T07:51:46.281Z,500.00
2023-04-02T07:52:46.324Z,501.00
2023-04-02T07:53:46.399Z,509.00
2023-04-02T07:54:46.407Z,500.00
2023-04-02T07:55:46.458Z,497.00
2023-04-02T07:56:46.525Z,499.00
2023-04-02T07:57:46.934Z,500.00
2023-04-02T07:58:46.650Z,500.00
2023-04-02T07:59:46.718Z,498.00
2023-04-02T08:00:46.781Z,500.00
2023-04-02T08:01:46.862Z,500.00
2023-04-02T08:02:46.923Z,508.00
2023-04-02T08:03:47.024Z,503.00
2023-04-02T08:04:47.020Z,502.00
2023-04-02T08:05:47.067Z,502.00
2023-04-02T08:06:47.145Z,500.00
2023-04-02T08:07:47.195Z,509.00
2023-04-02T08:08:47.264Z,505.00
2023-04-02T08:09:47.312Z,500.00
2023-04-02T08:10:47.384Z,501.00
2023-04-02T08:11:47.457Z,501.00
2023-04-02T08:12:47.521Z,502.00
2023-04-02T08:13:47.626Z,500.00
2023-04-02T08:14:47.684Z,502.00
2023-04-02T08:15:47.760Z,508.00
2023-04-02T08:16:47.864Z,500.00
2023-04-02T08:17:48.046Z,500.00
2023-04-02T08:18:47.997Z,507.00
2023-04-02T08:19:54.711Z,502.00
2023-04-02T08:20:49.056Z,502.00
2023-04-02T08:21:48.097Z,503.00
2023-04-02T08:22:48.085Z,505.00
2023-04-02T08:23:48.090Z,506.00
2023-04-02T08:24:48.103Z,517.00
2023-04-02T08:25:48.120Z,507.00
2023-04-02T08:26:48.123Z,521.00
2023-04-02T08:27:48.164Z,500.00
2023-04-02T08:28:48.172Z,506.00
2023-04-02T08:29:48.231Z,507.00
2023-04-02T08:30:48.281Z,500.00
2023-04-02T08:31:48.340Z,502.00
2023-04-02T08:32:48.466Z,503.00
2023-04-02T08:33:48.475Z,511.00
2023-04-02T08:34:48.523Z,511.00
2023-04-02T08:35:48.588Z,503.00
2023-04-02T08:36:48.630Z,516.00
2023-04-02T08:37:48.703Z,522.00
2023-04-02T08:38:48.769Z,527.00
2023-04-02T08:39:48.856Z,511.00
2023-04-02T08:40:48.895Z,500.00
2023-04-02T08:41:48.972Z,504.00
2023-04-02T08:42:49.056Z,504.00
2023-04-02T08:43:49.140Z,501.00
2023-04-02T08:44:49.205Z,513.00
2023-04-02T08:45:49.281Z,501.00
2023-04-02T08:46:49.352Z,500.00
2023-04-02T08:47:49.437Z,505.00
2023-04-02T08:48:49.543Z,525.00
2023-04-02T08:49:49.592Z,529.00
2023-04-02T08:50:49.661Z,521.00
2023-04-02T08:51:49.741Z,518.00
2023-04-02T08:52:49.834Z,521.00
2023-04-02T08:53:49.911Z,525.00
2023-04-02T08:54:49.991Z,523.00
2023-04-02T08:55:50.074Z,500.00
2023-04-02T08:56:50.171Z,511.00
2023-04-02T08:57:50.232Z,509.00
2023-04-02T08:58:50.328Z,507.00
2023-04-02T08:59:50.397Z,503.00
2023-04-02T09:00:50.466Z,543.00
2023-04-02T09:01:50.553Z,567.00
2023-04-02T09:02:50.614Z,591.00
2023-04-02T09:03:50.677Z,640.00
2023-04-02T09:04:50.794Z,662.00
2023-04-02T09:05:50.847Z,754.00
2023-04-02T09:06:50.933Z,774.00
2023-04-02T09:07:50.986Z,825.00
2023-04-02T09:08:51.055Z,918.00
2023-04-02T09:09:51.142Z,964.00
2023-04-02T09:10:51.223Z,1021.00
2023-04-02T09:11:51.293Z,1062.00
2023-04-02T09:12:51.365Z,1119.00
2023-04-02T09:13:51.415Z,1182.00
2023-04-02T09:14:51.484Z,1246.00
2023-04-02T09:15:51.616Z,1273.00
2023-04-02T09:16:51.552Z,1275.00
2023-04-02T09:17:54.396Z,1291.00
2023-04-02T09:18:51.568Z,1331.00
2023-04-02T09:19:51.580Z,1403.00
2023-04-02T09:20:51.593Z,1532.00
2023-04-02T09:21:51.600Z,1575.00
2023-04-02T09:22:51.602Z,1613.00
2023-04-02T09:23:51.610Z,1648.00
2023-04-02T09:24:51.618Z,1700.00
2023-04-02T09:26:03.666Z,1750.00
2023-04-02T09:26:52.630Z,1752.00
2023-04-02T09:27:51.630Z,1762.00
2023-04-02T09:28:51.644Z,1788.00
2023-04-02T09:29:51.642Z,1839.00
2023-04-02T09:30:51.645Z,1917.00
2023-04-02T09:31:51.672Z,1946.00
2023-04-02T09:32:51.672Z,1971.00
2023-04-02T09:33:51.668Z,2003.00
2023-04-02T09:34:51.675Z,2040.00
2023-04-02T09:35:51.704Z,2049.00
2023-04-02T09:36:51.680Z,2090.00
2023-04-02T09:37:51.682Z,2099.00
2023-04-02T09:38:51.687Z,2130.00
2023-04-02T09:39:51.689Z,2140.00
2023-04-02T09:40:51.746Z,2174.00
2023-04-02T09:42:02.806Z,2191.00
2023-04-02T09:42:52.717Z,2193.00
2023-04-02T09:43:51.713Z,2198.00
2023-04-02T09:44:51.734Z,2210.00
2023-04-02T09:45:51.729Z,2236.00
2023-04-02T09:46:51.795Z,2195.00
2023-04-02T09:47:51.779Z,2211.00
2023-04-02T09:48:51.749Z,2239.00
2023-04-02T09:49:51.775Z,2289.00
2023-04-02T09:50:51.761Z,2338.00
2023-04-02T09:51:51.754Z,2364.00
2023-04-02T09:52:51.758Z,2382.00
2023-04-02T09:53:51.775Z,2379.00
2023-04-02T09:54:51.777Z,2388.00
2023-04-02T09:55:51.762Z,2419.00
2023-04-02T09:56:51.777Z,2417.00
2023-04-02T09:57:51.755Z,2408.00
2023-04-02T09:58:51.758Z,2431.00
2023-04-02T09:59:51.758Z,2444.00
2023-04-02T10:00:51.769Z,2468.00
2023-04-02T10:01:51.766Z,2470.00
2023-04-02T10:02:51.795Z,2483.00
2023-04-02T10:03:51.798Z,2500.00
2023-04-02T10:04:51.784Z,2508.00
2023-04-02T10:05:51.779Z,2496.00
2023-04-02T10:06:51.788Z,2524.00
2023-04-02T10:07:51.776Z,2527.00
2023-04-02T10:08:51.779Z,2527.00
2023-04-02T10:09:51.786Z,2539.00
2023-04-02T10:10:51.806Z,2557.00
2023-04-02T10:11:51.801Z,2549.00
2023-04-02T10:12:51.818Z,2559.00
2023-04-02T10:13:51.813Z,2579.00
2023-04-02T10:14:51.828Z,2563.00
2023-04-02T10:15:51.835Z,2583.00
2023-04-02T10:16:51.851Z,2597.00
2023-04-02T10:17:51.861Z,2576.00
2023-04-02T10:18:51.896Z,2613.00
2023-04-02T10:19:51.964Z,2600.00
2023-04-02T10:20:52.040Z,2602.00
2023-04-02T10:21:52.104Z,2624.00
2023-04-02T10:22:52.167Z,2617.00
2023-04-02T10:23:52.182Z,2623.00
2023-04-02T10:24:52.251Z,2630.00
2023-04-02T10:25:52.315Z,2637.00
2023-04-02T10:26:52.376Z,2646.00
2023-04-02T10:27:52.415Z,2637.00
2023-04-02T10:28:52.471Z,2621.00
2023-04-02T10:29:52.547Z,2640.00
2023-04-02T10:30:52.622Z,2634.00
2023-04-02T10:31:52.690Z,2641.00
2023-04-02T10:32:52.784Z,2641.00
2023-04-02T10:33:52.793Z,2639.00
2023-04-02T10:34:52.858Z,2656.00
2023-04-02T10:35:52.930Z,2670.00
2023-04-02T10:36:52.986Z,2660.00
2023-04-02T10:37:53.042Z,2672.00
2023-04-02T10:38:53.116Z,2676.00
2023-04-02T10:39:53.195Z,2667.00
2023-04-02T10:40:54.808Z,2676.00
2023-04-02T10:41:53.440Z,2667.00
2023-04-02T10:42:53.506Z,2667.00
2023-04-02T10:43:53.574Z,2680.00
2023-04-02T10:44:53.653Z,2685.00
2023-04-02T10:45:53.720Z,2676.00
2023-04-02T10:46:53.783Z,2691.00
2023-04-02T10:47:53.880Z,2660.00
2023-04-02T10:48:53.916Z,2674.00
2023-04-02T10:49:53.959Z,2688.00
2023-04-02T10:50:54.032Z,2687.00
2023-04-02T10:51:54.097Z,2692.00
2023-04-02T10:52:55.496Z,2692.00
2023-04-02T10:53:54.224Z,2701.00
2023-04-02T10:54:54.277Z,2690.00
2023-04-02T10:55:54.348Z,2685.00
2023-04-02T10:56:54.399Z,2688.00
2023-04-02T10:57:54.441Z,2687.00
2023-04-02T10:58:56.821Z,2687.00
2023-04-02T10:59:54.492Z,2704.00
2023-04-02T11:00:54.496Z,2705.00
2023-04-02T11:01:54.584Z,2714.00
2023-04-02T11:02:54.586Z,2690.00
2023-04-02T11:03:56.989Z,2704.00
2023-04-02T11:04:57.078Z,2706.00
2023-04-02T11:05:54.488Z,2706.00
2023-04-02T11:07:07.289Z,2709.00
2023-04-02T11:07:55.463Z,2707.00
2023-04-02T11:08:54.465Z,2709.00
2023-04-02T11:09:54.460Z,2713.00
2023-04-02T11:10:54.480Z,2720.00
2023-04-02T11:11:54.464Z,2727.00
2023-04-02T11:12:54.474Z,2723.00
2023-04-02T11:13:54.450Z,2728.00
2023-04-02T11:14:54.452Z,2723.00
2023-04-02T11:15:54.497Z,2723.00
2023-04-02T11:16:54.461Z,2726.00
2023-04-02T11:17:54.459Z,2727.00
2023-04-02T11:18:54.430Z,2734.00
2023-04-02T11:19:54.429Z,2722.00
2023-04-02T11:20:54.421Z,2741.00
2023-04-02T11:21:59.500Z,2725.00
2023-04-02T11:22:55.427Z,2725.00
2023-04-02T11:23:54.427Z,2727.00
2023-04-02T11:24:54.429Z,2725.00
2023-04-02T11:25:54.426Z,2728.00
2023-04-02T11:26:54.418Z,2735.00
2023-04-02T11:27:54.422Z,2759.00
2023-04-02T11:28:54.406Z,2736.00
2023-04-02T11:29:54.408Z,2729.00
2023-04-02T11:30:54.466Z,2728.00
2023-04-02T11:31:54.558Z,2741.00
2023-04-02T11:32:54.448Z,2720.00
2023-04-02T11:33:54.448Z,2733.00
2023-04-02T11:35:05.992Z,2729.00
2023-04-02T11:35:55.520Z,2730.00
2023-04-02T11:36:54.513Z,2732.00
2023-04-02T11:37:54.488Z,2739.00
2023-04-02T11:38:57.602Z,2745.00
2023-04-02T11:39:55.497Z,2730.00
2023-04-02T11:40:54.485Z,2736.00
2023-04-02T11:41:54.481Z,2740.00
2023-04-02T11:42:54.486Z,2741.00
2023-04-02T11:43:54.485Z,2738.00
2023-04-02T11:44:54.487Z,2751.00
2023-04-02T11:45:54.779Z,2758.00
2023-04-02T11:46:54.521Z,2744.00
2023-04-02T11:47:54.511Z,2748.00
2023-04-02T11:48:54.476Z,2756.00
2023-04-02T11:49:54.473Z,2735.00
2023-04-02T11:50:54.500Z,2742.00
2023-04-02T11:52:05.615Z,2739.00
2023-04-02T11:52:55.548Z,2740.00
2023-04-02T11:53:54.542Z,2742.00
2023-04-02T11:54:54.544Z,2740.00
2023-04-02T11:55:54.549Z,2741.00
2023-04-02T11:56:54.596Z,2759.00
2023-04-02T11:57:54.537Z,2738.00
2023-04-02T11:58:54.549Z,2745.00
2023-04-02T11:59:54.536Z,2750.00
2023-04-02T12:00:54.542Z,2749.00
2023-04-02T12:01:54.560Z,2743.00
2023-04-02T12:02:54.555Z,2743.00
2023-04-02T12:03:54.595Z,2743.00
2023-04-02T12:04:54.650Z,2730.00
2023-04-02T12:05:54.754Z,2743.00
2023-04-02T12:06:54.760Z,2748.00
2023-04-02T12:07:54.788Z,2735.00
2023-04-02T12:08:57.987Z,2743.00
2023-04-02T12:09:54.857Z,2744.00
2023-04-02T12:10:54.859Z,2733.00
2023-04-02T12:11:54.862Z,2734.00
2023-04-02T12:12:54.862Z,2746.00
2023-04-02T12:13:54.869Z,2710.00
2023-04-02T12:14:54.872Z,2749.00
2023-04-02T12:15:54.866Z,2737.00
2023-04-02T12:16:54.894Z,2728.00